Time;durP1;ratioP1;P1;durP2;ratioP2;P2;SDS_P1;SDS_P2;PMS_P1;PMS_P2;Temp;Humidity;BMP_temperature;BMP_pressure;BME280_temperature;BME280_humidity;BME280_pressure;Samples;Min_cycle;Max_cycle;Signal;HPM_P1;HPM_P2
2021/09/04 00:02:01;;;;;;;8.93;4.70;;;;;;;14.63;78.60;96705.50;1692602;84;21067;-82
2021/09/04 00:04:26;;;;;;;7.17;4.78;;;;;;;14.59;78.77;96703.80;1680561;84;21064;-82
2021/09/04 00:06:52;;;;;;;6.35;4.90;;;;;;;14.57;78.74;96703.70;1666169;84;21022;-82
2021/09/04 00:09:19;;;;;;;7.42;4.90;;;;;;;14.56;78.67;96698.97;1662564;84;21402;-82
2021/09/04 00:11:44;;;;;;;6.35;5.20;;;;;;;14.55;78.72;96697.86;1675325;84;21028;-82
2021/09/04 00:14:10;;;;;;;7.60;5.45;;;;;;;14.51;78.85;96706.61;1669498;84;21016;-82
2021/09/04 00:16:36;;;;;;;7.92;4.40;;;;;;;14.46;78.85;96705.58;1670130;84;21426;-82
2021/09/04 00:19:01;;;;;;;6.53;5.25;;;;;;;14.44;79.06;96711.00;1680347;84;21035;-82
2021/09/04 00:21:28;;;;;;;6.10;4.58;;;;;;;14.40;79.09;96707.15;1657523;84;21111;-82
2021/09/04 00:23:54;;;;;;;8.25;5.35;;;;;;;14.34;79.23;96710.06;1671451;84;21112;-82
2021/09/04 00:26:22;;;;;;;5.55;4.87;;;;;;;14.33;79.31;96711.56;1680107;84;21414;-82
2021/09/04 00:28:47;;;;;;;7.62;5.30;;;;;;;14.30;79.34;96715.35;1672706;84;21036;-82
2021/09/04 00:31:13;;;;;;;7.47;5.28;;;;;;;14.28;79.36;96713.94;1678066;84;21613;-82
2021/09/04 00:33:38;;;;;;;7.70;5.28;;;;;;;14.25;79.48;96707.30;1665537;84;21070;-82
2021/09/04 00:36:04;;;;;;;7.08;5.28;;;;;;;14.21;79.51;96708.70;1677474;84;21116;-82
2021/09/04 00:38:31;;;;;;;6.60;5.15;;;;;;;14.18;79.57;96710.41;1679080;84;21462;-82
2021/09/04 00:40:57;;;;;;;7.83;5.17;;;;;;;14.17;79.57;96711.92;1678541;84;21089;-82
2021/09/04 00:43:23;;;;;;;6.97;5.60;;;;;;;14.16;79.64;96709.00;1683373;84;21096;-82
2021/09/04 00:45:49;;;;;;;9.15;5.83;;;;;;;14.15;79.72;96702.13;1674350;84;22321;-82
2021/09/04 00:48:15;;;;;;;7.62;6.03;;;;;;;14.11;79.85;96704.34;1675044;84;21078;-82
2021/09/04 00:50:41;;;;;;;7.03;5.67;;;;;;;14.07;79.95;96710.47;1670395;84;21145;-82
2021/09/04 00:53:06;;;;;;;11.63;7.40;;;;;;;14.04;80.10;96704.83;1710559;82;21017;-82
2021/09/04 00:55:33;;;;;;;6.28;5.10;;;;;;;14.01;80.31;96706.03;1708095;82;21025;-82
2021/09/04 00:57:58;;;;;;;6.50;5.40;;;;;;;14.00;80.54;96702.31;1717404;83;21473;-82
2021/09/04 01:00:24;;;;;;;6.72;5.60;;;;;;;13.98;80.46;96705.09;1721951;83;21018;-82
2021/09/04 01:02:50;;;;;;;9.90;6.17;;;;;;;13.98;80.52;96701.67;1718557;83;21039;-82
2021/09/04 01:05:16;;;;;;;8.95;6.15;;;;;;;13.97;80.68;96702.67;1715950;83;21022;-82
2021/09/04 01:07:42;;;;;;;6.87;6.15;;;;;;;13.95;80.66;96698.95;1675789;84;21422;-82
2021/09/04 01:10:10;;;;;;;6.87;5.92;;;;;;;13.92;80.75;96698.55;1674222;84;21042;-82
2021/09/04 01:12:36;;;;;;;9.33;5.30;;;;;;;13.90;80.93;96699.23;1684045;84;21063;-82
2021/09/04 01:15:05;;;;;;;6.87;5.55;;;;;;;13.88;81.05;96706.47;1687036;84;21044;-82
2021/09/04 01:17:31;;;;;;;6.90;5.70;;;;;;;13.86;81.20;96705.36;1687523;84;21367;-82
2021/09/04 01:19:57;;;;;;;8.88;6.30;;;;;;;13.88;81.18;96700.74;1670308;84;21034;-82
2021/09/04 01:22:22;;;;;;;7.30;5.70;;;;;;;13.87;81.20;96704.36;1670734;85;21060;-82
2021/09/04 01:24:50;;;;;;;8.93;5.87;;;;;;;13.86;81.31;96702.75;1667257;86;21107;-82
2021/09/04 01:27:17;;;;;;;8.28;6.40;;;;;;;13.84;81.44;96701.34;1672246;84;21073;-82
2021/09/04 01:29:42;;;;;;;7.22;5.85;;;;;;;13.81;81.61;96703.31;1678598;83;21402;-82
2021/09/04 01:32:08;;;;;;;7.15;6.12;;;;;;;13.80;81.72;96699.09;1667678;84;20981;-82
2021/09/04 01:34:34;;;;;;;8.00;5.20;;;;;;;13.79;81.84;96700.09;1659000;86;21018;-82
2021/09/04 01:36:59;;;;;;;7.70;6.22;;;;;;;13.78;81.70;96705.00;1663300;84;21055;-82
2021/09/04 01:39:25;;;;;;;6.78;5.78;;;;;;;13.80;81.84;96700.39;1684191;84;21398;-82
2021/09/04 01:41:51;;;;;;;9.63;7.00;;;;;;;13.78;81.96;96696.36;1666290;84;21078;-82
2021/09/04 01:44:17;;;;;;;7.10;5.65;;;;;;;13.72;81.97;96694.04;1688814;84;21077;-82
2021/09/04 01:46:43;;;;;;;8.20;5.65;;;;;;;13.74;82.00;96693.34;1687624;84;21340;-82
2021/09/04 01:49:09;;;;;;;8.15;6.28;;;;;;;13.73;82.20;96702.18;1661763;84;21080;-82
2021/09/04 01:51:35;;;;;;;7.60;5.17;;;;;;;13.71;82.22;96695.04;1668619;85;21092;-83
2021/09/04 01:54:01;;;;;;;7.45;5.95;;;;;;;13.71;82.14;96688.52;1675716;85;21081;-82
2021/09/04 01:56:26;;;;;;;8.23;6.67;;;;;;;13.69;82.20;96685.80;1687862;84;21296;-82
2021/09/04 01:58:52;;;;;;;8.83;6.42;;;;;;;13.67;82.32;96687.80;1677717;84;20986;-82
2021/09/04 02:01:18;;;;;;;8.48;5.55;;;;;;;13.64;82.51;96684.23;1673783;84;22170;-82
2021/09/04 02:03:44;;;;;;;8.53;5.85;;;;;;;13.63;82.74;96685.24;1687228;83;21100;-82
2021/09/04 02:06:09;;;;;;;7.80;5.55;;;;;;;13.63;82.89;96683.94;1660707;85;21147;-82
2021/09/04 02:08:35;;;;;;;8.33;6.08;;;;;;;13.63;82.93;96679.52;1690117;84;20984;-82
2021/09/04 02:11:01;;;;;;;9.70;6.42;;;;;;;13.63;82.87;96677.41;1694667;84;21107;-82
2021/09/04 02:13:28;;;;;;;9.35;6.75;;;;;;;13.64;82.95;96677.71;1685461;84;21030;-82
2021/09/04 02:15:54;;;;;;;8.28;6.30;;;;;;;13.63;83.04;96674.80;1678172;84;21450;-82
2021/09/04 02:18:20;;;;;;;7.90;6.20;;;;;;;13.60;83.01;96680.41;1684035;84;20965;-82
2021/09/04 02:20:48;;;;;;;9.38;6.00;;;;;;;13.56;83.21;96681.80;1671195;84;21028;-82
2021/09/04 02:23:15;;;;;;;7.05;5.75;;;;;;;13.54;83.14;96680.69;1662894;85;21007;-83
2021/09/04 02:25:41;;;;;;;9.33;6.60;;;;;;;13.54;83.23;96678.08;1671856;84;21462;-82
2021/09/04 02:28:07;;;;;;;7.37;5.95;;;;;;;13.54;83.31;96682.50;1678992;84;21083;-82
2021/09/04 02:30:33;;;;;;;7.00;6.22;;;;;;;13.54;83.38;96683.30;1671678;84;21021;-82
2021/09/04 02:32:59;;;;;;;9.00;6.92;;;;;;;13.52;83.43;96676.16;1672536;84;21018;-82
2021/09/04 02:35:24;;;;;;;7.35;6.05;;;;;;;13.50;83.50;96682.05;1685005;84;22217;-82
2021/09/04 02:37:50;;;;;;;7.03;6.05;;;;;;;13.47;83.71;96680.64;1678683;84;22559;-82
2021/09/04 02:40:16;;;;;;;9.98;5.70;;;;;;;13.47;84.05;96678.52;1666583;84;21160;-82
2021/09/04 02:42:42;;;;;;;9.98;6.12;;;;;;;13.46;83.95;96684.75;1682879;83;21052;-82
2021/09/04 02:45:09;;;;;;;7.20;5.75;;;;;;;13.45;83.99;96681.33;1662466;84;22197;-82
2021/09/04 02:47:35;;;;;;;7.08;5.90;;;;;;;13.44;83.98;96682.83;1711235;83;20963;-82
2021/09/04 02:50:03;;;;;;;9.40;6.97;;;;;;;13.43;84.19;96683.33;1697426;81;21048;-82
2021/09/04 02:52:29;;;;;;;7.72;5.95;;;;;;;13.44;84.19;96675.00;1687613;83;21082;-82
2021/09/04 02:54:55;;;;;;;8.98;6.75;;;;;;;13.42;84.21;96677.00;1685969;84;21109;-82
2021/09/04 02:57:21;;;;;;;8.48;6.72;;;;;;;13.40;84.48;96673.78;1685082;84;20987;-81
2021/09/04 02:59:46;;;;;;;8.25;6.03;;;;;;;13.38;84.60;96670.06;1681751;84;20989;-81
2021/09/04 03:02:14;;;;;;;8.65;6.58;;;;;;;13.39;84.67;96668.25;1694980;84;21032;-82
2021/09/04 03:04:40;;;;;;;9.10;5.87;;;;;;;13.38;84.62;96663.53;1681946;83;21127;-82
2021/09/04 03:07:07;;;;;;;8.50;6.55;;;;;;;13.38;84.58;96667.45;1688471;84;21126;-82
2021/09/04 03:09:33;;;;;;;7.72;6.40;;;;;;;13.38;84.57;96665.34;1666982;85;21034;-82
2021/09/04 03:12:00;;;;;;;8.75;6.78;;;;;;;13.37;84.67;96668.95;1680330;84;21034;-82
2021/09/04 03:14:26;;;;;;;8.95;6.70;;;;;;;13.34;84.81;96661.48;1673312;84;21465;-82
2021/09/04 03:16:52;;;;;;;8.68;6.95;;;;;;;13.33;85.02;96657.26;1689654;83;21152;-82
2021/09/04 03:19:18;;;;;;;9.10;6.67;;;;;;;13.33;85.12;96657.26;1664011;84;21118;-82
2021/09/04 03:21:44;;;;;;;11.33;7.20;;;;;;;13.32;85.05;96659.56;1677717;84;21041;-82
2021/09/04 03:24:10;;;;;;;10.28;6.72;;;;;;;13.33;85.36;96658.06;1689247;83;21119;-82
2021/09/04 03:26:36;;;;;;;9.35;6.80;;;;;;;13.32;85.22;96661.67;1699301;84;21114;-82
2021/09/04 03:29:02;;;;;;;10.48;7.53;;;;;;;13.32;85.19;96662.98;1670053;84;21014;-82
2021/09/04 03:31:28;;;;;;;9.70;7.17;;;;;;;13.30;85.25;96664.98;1692147;84;21440;-82
2021/09/04 03:33:53;;;;;;;9.08;7.17;;;;;;;13.29;85.29;96658.65;1699673;83;21077;-82
2021/09/04 03:36:19;;;;;;;8.65;7.10;;;;;;;13.26;85.47;96661.14;1684364;83;21118;-82
2021/09/04 03:38:45;;;;;;;9.08;6.33;;;;;;;13.25;85.64;96662.64;1690780;84;20986;-82
2021/09/04 03:41:11;;;;;;;8.53;6.12;;;;;;;13.25;85.76;96671.77;1693126;84;21417;-82
2021/09/04 03:43:37;;;;;;;7.78;6.33;;;;;;;13.27;85.81;96669.28;1690351;84;21039;-82
2021/09/04 03:46:02;;;;;;;7.95;6.53;;;;;;;13.30;85.83;96677.22;1653732;84;21045;-82
2021/09/04 03:48:29;;;;;;;9.23;6.05;;;;;;;13.29;85.99;96670.39;1651588;84;21044;-82
2021/09/04 03:50:54;;;;;;;7.70;6.37;;;;;;;13.27;85.87;96668.47;1705322;83;21030;-82
2021/09/04 03:53:20;;;;;;;7.83;6.47;;;;;;;13.23;86.00;96668.06;1689487;83;21046;-82
2021/09/04 03:55:46;;;;;;;7.85;6.20;;;;;;;13.21;86.02;96664.34;1683528;84;21426;-82
2021/09/04 03:58:12;;;;;;;7.80;5.37;;;;;;;13.21;85.90;96670.86;1679941;84;21091;-82
2021/09/04 04:00:38;;;;;;;8.40;6.40;;;;;;;13.21;85.92;96673.47;1692031;84;21006;-82
2021/09/04 04:03:04;;;;;;;8.68;5.58;;;;;;;13.21;86.10;96669.55;1652067;85;21395;-82
2021/09/04 04:05:29;;;;;;;8.75;6.55;;;;;;;13.23;86.07;96671.17;1689104;84;21075;-82
2021/09/04 04:07:56;;;;;;;7.58;6.53;;;;;;;13.23;86.01;96673.27;1665790;84;22121;-82
2021/09/04 04:10:21;;;;;;;7.67;6.40;;;;;;;13.23;85.82;96673.77;1665362;85;21458;-82
2021/09/04 04:12:47;;;;;;;8.83;6.58;;;;;;;13.20;86.05;96674.97;1672669;84;21099;-82
2021/09/04 04:15:13;;;;;;;7.33;6.03;;;;;;;13.17;86.14;96672.19;1693737;84;21072;-82
2021/09/04 04:17:39;;;;;;;8.70;5.92;;;;;;;13.18;86.19;96673.86;1677710;84;21000;-82
2021/09/04 04:20:06;;;;;;;7.33;5.85;;;;;;;13.16;86.27;96673.19;1680215;84;21087;-82
2021/09/04 04:22:33;;;;;;;10.20;6.25;;;;;;;13.15;86.20;96682.01;1678915;84;21118;-82
2021/09/04 04:24:59;;;;;;;8.48;6.62;;;;;;;13.16;86.23;96681.51;1678258;84;21478;-82
2021/09/04 04:27:25;;;;;;;9.95;6.83;;;;;;;13.14;86.30;96681.70;1658995;85;21059;-82
2021/09/04 04:29:51;;;;;;;8.65;7.03;;;;;;;13.14;86.54;96688.22;1668292;85;21358;-82
2021/09/04 04:32:17;;;;;;;9.40;6.62;;;;;;;13.13;86.77;96685.81;1681857;84;21031;-82
2021/09/04 04:34:43;;;;;;;8.95;5.95;;;;;;;13.13;86.86;96687.11;1681671;84;21072;-82
2021/09/04 04:37:09;;;;;;;8.65;6.47;;;;;;;13.15;87.10;96694.25;1673779;84;21115;-82
2021/09/04 04:39:35;;;;;;;7.55;6.17;;;;;;;13.15;87.19;96689.83;1661580;85;21039;-82
2021/09/04 04:42:00;;;;;;;7.50;6.20;;;;;;;13.17;87.16;96691.75;1666850;84;21027;-82
2021/09/04 04:44:26;;;;;;;8.95;7.15;;;;;;;13.23;87.24;96693.34;1693397;84;21391;-82
2021/09/04 04:46:52;;;;;;;7.00;6.30;;;;;;;13.25;87.11;96691.34;1691179;83;21073;-82
2021/09/04 04:49:18;;;;;;;7.53;6.70;;;;;;;13.25;87.13;96690.84;1662638;84;20971;-82
2021/09/04 04:51:44;;;;;;;9.60;7.00;;;;;;;13.24;87.38;96687.94;1690992;84;21510;-82
2021/09/04 04:54:10;;;;;;;9.48;6.35;;;;;;;13.24;87.29;96687.94;1668998;84;21236;-82
2021/09/04 04:56:36;;;;;;;8.83;6.87;;;;;;;13.26;87.36;96687.74;1664298;84;21153;-82
2021/09/04 04:59:02;;;;;;;7.87;6.20;;;;;;;13.28;87.33;96686.55;1677481;84;22332;-82
2021/09/04 05:01:28;;;;;;;7.70;5.78;;;;;;;13.28;87.44;96687.85;1688672;84;20997;-82
2021/09/04 05:03:53;;;;;;;7.47;5.97;;;;;;;13.31;87.49;96700.52;1684228;84;21369;-82
2021/09/04 05:06:19;;;;;;;7.78;6.40;;;;;;;13.32;87.62;96698.21;1680238;84;21068;-82
2021/09/04 05:08:45;;;;;;;7.67;6.30;;;;;;;13.34;87.49;96693.63;1672307;84;21063;-82
2021/09/04 05:11:10;;;;;;;7.67;6.28;;;;;;;13.39;87.58;96695.66;1668491;84;21014;-82
2021/09/04 05:13:36;;;;;;;12.73;6.90;;;;;;;13.40;87.65;96695.47;1680823;84;21043;-82
2021/09/04 05:16:02;;;;;;;8.85;6.22;;;;;;;13.42;87.76;96700.49;1661225;85;21007;-82
2021/09/04 05:18:28;;;;;;;8.90;6.85;;;;;;;13.44;87.80;96695.88;1677616;84;21104;-82
2021/09/04 05:20:54;;;;;;;8.38;6.40;;;;;;;13.48;87.89;96698.41;1694468;84;21083;-82
2021/09/04 05:23:20;;;;;;;6.70;5.60;;;;;;;13.50;87.90;96695.94;1672604;84;21094;-82
2021/09/04 05:25:46;;;;;;;7.97;5.70;;;;;;;13.53;88.07;96696.05;1668059;84;21519;-82
2021/09/04 05:28:11;;;;;;;6.35;5.70;;;;;;;13.55;88.10;96691.44;1670934;84;21110;-82
2021/09/04 05:30:37;;;;;;;6.72;6.03;;;;;;;13.57;88.01;96688.13;1676341;85;21141;-82
2021/09/04 05:33:03;;;;;;;8.83;6.90;;;;;;;13.64;88.08;96688.96;1675809;84;21105;-82
2021/09/04 05:35:29;;;;;;;7.75;6.55;;;;;;;13.68;88.15;96684.98;1689920;84;21511;-82
2021/09/04 05:37:54;;;;;;;8.23;6.45;;;;;;;13.72;88.12;96686.20;1679830;84;21072;-82
2021/09/04 05:40:20;;;;;;;8.08;6.17;;;;;;;13.76;88.21;96689.23;1691271;83;21040;-82
2021/09/04 05:42:46;;;;;;;8.35;5.85;;;;;;;13.78;88.33;96693.25;1703831;83;21334;-82
2021/09/04 05:45:11;;;;;;;9.05;6.25;;;;;;;13.83;88.29;96694.00;1687963;84;20975;-82
2021/09/04 05:47:37;;;;;;;6.08;5.47;;;;;;;13.88;88.30;96696.02;1694630;84;21090;-82
2021/09/04 05:50:04;;;;;;;8.00;5.30;;;;;;;13.94;88.30;96701.77;1681355;84;21143;-82
2021/09/04 05:52:30;;;;;;;8.70;6.60;;;;;;;14.03;88.31;96703.22;1697957;84;21555;-82
2021/09/04 05:54:56;;;;;;;7.97;7.17;;;;;;;14.12;88.28;96702.03;1703245;84;21050;-82
2021/09/04 05:57:21;;;;;;;7.55;6.03;;;;;;;14.21;88.33;96698.25;1679679;84;21421;-82
2021/09/04 05:59:47;;;;;;;7.28;6.30;;;;;;;14.30;88.44;96696.25;1695821;84;21004;-83
2021/09/04 06:02:13;;;;;;;8.08;5.97;;;;;;;14.36;88.64;96694.98;1688671;84;21030;-82
2021/09/04 06:04:39;;;;;;;8.70;5.87;;;;;;;14.47;88.63;96700.64;1697944;83;21070;-82
2021/09/04 06:07:05;;;;;;;7.55;5.80;;;;;;;14.58;88.56;96695.65;1675925;84;21528;-82
2021/09/04 06:09:31;;;;;;;8.73;5.90;;;;;;;14.73;88.47;96699.39;1680681;84;21086;-82
2021/09/04 06:11:57;;;;;;;7.87;7.00;;;;;;;14.84;88.04;96690.16;1693602;84;21480;-84
2021/09/04 06:14:23;;;;;;;10.23;7.05;;;;;;;14.94;87.77;96695.78;1685440;84;21028;-82
2021/09/04 06:16:49;;;;;;;8.58;7.67;;;;;;;15.06;87.75;96693.37;1680060;84;21031;-82
2021/09/04 06:19:14;;;;;;;9.33;7.28;;;;;;;15.13;86.99;96692.84;1688373;83;21000;-82
2021/09/04 06:21:40;;;;;;;8.05;6.70;;;;;;;15.17;86.83;96687.53;1687086;84;21564;-82
2021/09/04 06:24:06;;;;;;;6.47;5.83;;;;;;;15.21;86.22;96692.66;1713196;83;20961;-82
2021/09/04 06:26:33;;;;;;;8.58;6.55;;;;;;;15.24;86.18;96689.62;1679443;84;21000;-81
2021/09/04 06:29:00;;;;;;;7.60;6.28;;;;;;;15.29;86.26;96693.73;1688383;84;21053;-81
2021/09/04 06:31:26;;;;;;;8.93;7.03;;;;;;;15.35;86.09;96694.76;1692973;82;21035;-82
2021/09/04 06:33:51;;;;;;;9.58;7.33;;;;;;;15.38;85.56;96696.97;1703596;82;21003;-81
2021/09/04 06:36:17;;;;;;;8.80;7.37;;;;;;;15.36;84.71;96701.09;1698534;83;21074;-81
2021/09/04 06:38:43;;;;;;;8.10;5.92;;;;;;;15.38;84.50;96696.97;1697169;84;21116;-80
2021/09/04 06:41:09;;;;;;;9.95;6.95;;;;;;;15.40;84.80;96703.60;1688437;84;21034;-80
2021/09/04 06:43:35;;;;;;;8.25;6.92;;;;;;;15.44;84.82;96694.83;1690241;84;21023;-81
2021/09/04 06:46:01;;;;;;;9.40;6.85;;;;;;;15.48;84.79;96699.47;1687966;84;21085;-81
2021/09/04 06:48:27;;;;;;;9.98;7.33;;;;;;;15.51;84.83;96704.30;1665464;84;21106;-81
2021/09/04 06:50:52;;;;;;;9.10;6.80;;;;;;;15.54;83.90;96702.58;1668557;84;21466;-80
2021/09/04 06:53:18;;;;;;;8.30;6.65;;;;;;;15.56;83.69;96699.23;1672560;84;21056;-80
2021/09/04 06:55:44;;;;;;;7.47;6.10;;;;;;;15.61;83.95;96705.20;1661561;84;20988;-80
2021/09/04 06:58:10;;;;;;;7.80;6.80;;;;;;;15.65;84.04;96708.23;1691254;84;21520;-80
2021/09/04 07:00:35;;;;;;;9.40;6.03;;;;;;;15.66;83.55;96713.27;1687255;84;21072;-80
2021/09/04 07:03:01;;;;;;;8.20;6.30;;;;;;;15.69;83.56;96714.66;1676752;83;20983;-82
2021/09/04 07:05:27;;;;;;;7.70;6.45;;;;;;;15.73;83.52;96715.86;1671974;84;21106;-80
2021/09/04 07:07:53;;;;;;;8.58;7.20;;;;;;;15.77;83.44;96715.73;1692111;84;21111;-80
2021/09/04 07:10:19;;;;;;;8.80;7.12;;;;;;;15.79;83.23;96714.55;1685488;84;21040;-80
2021/09/04 07:12:45;;;;;;;9.85;7.97;;;;;;;15.82;82.68;96719.37;1682413;84;21050;-80
2021/09/04 07:15:11;;;;;;;8.78;6.97;;;;;;;15.85;82.25;96718.95;1672506;84;21046;-80
2021/09/04 07:17:38;;;;;;;11.10;8.50;;;;;;;15.89;82.03;96721.95;1665478;85;21070;-80
2021/09/04 07:20:07;;;;;;;8.83;7.92;;;;;;;15.93;81.03;96724.45;1689261;83;21035;-80
2021/09/04 07:22:32;;;;;;;9.35;8.38;;;;;;;16.01;81.43;96726.86;1670492;84;21073;-80
2021/09/04 07:24:58;;;;;;;10.60;8.18;;;;;;;16.09;80.90;96717.95;1657304;84;21102;-80
2021/09/04 07:27:24;;;;;;;11.90;9.10;;;;;;;16.14;80.83;96713.70;1705547;83;21150;-80
2021/09/04 07:29:50;;;;;;;9.83;8.38;;;;;;;16.18;80.84;96716.20;1712872;82;21522;-80
2021/09/04 07:32:15;;;;;;;10.15;8.65;;;;;;;16.21;80.07;96717.09;1700198;82;21079;-80
2021/09/04 07:34:41;;;;;;;8.58;7.67;;;;;;;16.29;80.21;96717.89;1698846;83;21556;-80
2021/09/04 07:37:07;;;;;;;9.55;8.45;;;;;;;16.35;80.48;96714.41;1689620;84;21158;-80
2021/09/04 07:39:32;;;;;;;10.75;8.58;;;;;;;16.40;80.33;96721.94;1677133;84;21478;-80
2021/09/04 07:41:58;;;;;;;11.63;9.63;;;;;;;16.53;80.66;96715.02;1691026;83;21083;-80
2021/09/04 07:44:24;;;;;;;37.93;30.05;;;;;;;16.68;80.19;96723.44;1678864;84;21114;-80
2021/09/04 07:46:50;;;;;;;29.45;23.30;;;;;;;16.79;79.66;96723.58;1685910;84;21051;-80
2021/09/04 07:49:16;;;;;;;12.03;9.98;;;;;;;16.90;79.98;96722.06;1697310;84;21055;-80
2021/09/04 07:51:42;;;;;;;10.35;9.13;;;;;;;17.01;79.18;96729.77;1686878;84;21413;-80
2021/09/04 07:54:07;;;;;;;12.68;8.93;;;;;;;17.07;79.47;96727.09;1676973;84;21051;-80
2021/09/04 07:56:33;;;;;;;11.43;9.50;;;;;;;17.20;78.71;96729.32;1686717;84;21061;-80
2021/09/04 07:58:59;;;;;;;10.43;8.95;;;;;;;17.21;78.24;96729.61;1675468;84;21061;-80
2021/09/04 08:01:25;;;;;;;9.58;8.25;;;;;;;17.22;78.61;96730.70;1690387;84;21079;-80
2021/09/04 08:03:50;;;;;;;10.45;8.23;;;;;;;17.28;79.44;96736.43;1677294;84;21368;-80
2021/09/04 08:06:16;;;;;;;41.70;21.42;;;;;;;17.35;78.74;96732.42;1688384;83;21003;-80
2021/09/04 08:08:42;;;;;;;30.60;17.32;;;;;;;17.41;78.26;96740.77;1697970;84;21066;-80
2021/09/04 08:11:08;;;;;;;12.70;8.95;;;;;;;17.40;77.95;96740.45;1682964;84;21090;-80
2021/09/04 08:13:34;;;;;;;10.32;8.50;;;;;;;17.38;79.04;96741.98;1670651;84;21442;-79
2021/09/04 08:16:00;;;;;;;12.25;8.53;;;;;;;17.48;78.04;96744.64;1702115;84;21035;-80
2021/09/04 08:18:26;;;;;;;12.47;8.20;;;;;;;17.50;77.46;96743.91;1697526;84;21130;-80
2021/09/04 08:20:52;;;;;;;9.73;8.33;;;;;;;17.55;77.12;96748.00;1688640;84;21442;-80
2021/09/04 08:23:17;;;;;;;9.68;7.75;;;;;;;17.60;77.98;96741.61;1679305;84;21127;-80
2021/09/04 08:25:43;;;;;;;12.28;10.43;;;;;;;17.67;78.39;96739.19;1689057;84;21098;-80
2021/09/04 08:28:09;;;;;;;9.85;8.60;;;;;;;17.75;76.75;96740.78;1675854;84;21446;-80
2021/09/04 08:30:35;;;;;;;10.60;7.87;;;;;;;17.80;77.00;96744.06;1678435;84;21038;-80
2021/09/04 08:33:02;;;;;;;8.60;7.70;;;;;;;17.86;77.76;96743.17;1677528;84;21157;-80
2021/09/04 08:35:27;;;;;;;8.45;7.45;;;;;;;17.93;78.01;96744.73;1664359;85;21386;-80
2021/09/04 08:37:53;;;;;;;12.00;10.05;;;;;;;17.98;77.90;96750.12;1681265;84;21094;-80
2021/09/04 08:40:20;;;;;;;19.07;13.03;;;;;;;18.08;76.80;96751.45;1675545;84;21010;-80
2021/09/04 08:42:47;;;;;;;11.85;10.28;;;;;;;18.16;76.62;96756.40;1685103;84;21069;-80
2021/09/04 08:45:13;;;;;;;14.85;11.57;;;;;;;18.22;76.39;96758.14;1669609;84;21049;-80
2021/09/04 08:47:39;;;;;;;15.23;11.00;;;;;;;18.29;75.80;96758.37;1664544;83;21501;-80
2021/09/04 08:50:06;;;;;;;15.18;12.37;;;;;;;18.43;75.59;96755.58;1702820;84;21051;-79
2021/09/04 08:52:32;;;;;;;14.33;9.98;;;;;;;18.55;75.10;96754.61;1673721;84;21398;-80
2021/09/04 08:54:58;;;;;;;10.23;9.00;;;;;;;18.70;74.84;96751.58;1684679;84;21150;-80
2021/09/04 08:57:24;;;;;;;15.75;10.85;;;;;;;18.81;73.52;96750.02;1681815;84;21114;-80
2021/09/04 08:59:50;;;;;;;15.80;9.98;;;;;;;18.87;72.75;96755.70;1690704;83;21134;-79
2021/09/04 09:02:17;;;;;;;12.53;9.88;;;;;;;19.00;72.81;96754.70;1685318;84;21044;-80
2021/09/04 09:04:44;;;;;;;10.68;9.58;;;;;;;19.07;72.83;96749.64;1681033;84;21081;-80
2021/09/04 09:07:09;;;;;;;10.18;9.18;;;;;;;19.13;71.18;96744.78;1640329;84;21086;-80
2021/09/04 09:09:36;;;;;;;9.05;8.15;;;;;;;19.10;71.28;96746.55;1702173;84;21421;-80
2021/09/04 09:12:09;;;;;;;10.30;9.30;;;;;;;18.99;72.30;96749.95;1692045;83;21146;-80
2021/09/04 09:14:36;;;;;;;9.48;8.48;;;;;;;18.87;71.65;96751.75;1683868;83;21012;-81
2021/09/04 09:17:02;;;;;;;9.35;8.05;;;;;;;18.76;72.99;96753.34;1627998;84;21067;-81
2021/09/04 09:19:39;;;;;;;11.18;7.55;;;;;;;18.64;73.54;96756.44;1681692;84;21087;-81
2021/09/04 09:22:14;;;;;;;8.23;7.03;;;;;;;18.55;74.36;96753.30;1650941;86;21050;-81
2021/09/04 09:24:40;;;;;;;10.23;8.43;;;;;;;18.49;75.04;96758.11;1655864;85;21054;-81
2021/09/04 09:27:05;;;;;;;9.15;8.10;;;;;;;18.57;75.52;96759.13;1685128;84;21079;-80
2021/09/04 09:29:34;;;;;;;10.63;9.53;;;;;;;18.69;75.29;96752.61;1663587;84;21097;-80
2021/09/04 09:32:09;;;;;;;11.93;10.68;;;;;;;18.75;73.86;96753.56;1689656;84;21099;-81
2021/09/04 09:34:45;;;;;;;11.65;9.65;;;;;;;18.70;73.32;96756.05;1687986;83;21087;-80
2021/09/04 09:37:12;;;;;;;10.55;9.30;;;;;;;18.66;73.88;96756.20;1712913;82;21000;-80
2021/09/04 09:39:41;;;;;;;10.70;9.60;;;;;;;18.74;72.75;96759.34;1653444;84;21123;-80
2021/09/04 09:42:12;;;;;;;12.37;10.75;;;;;;;18.89;71.89;96761.56;1715364;82;21003;-80
2021/09/04 09:44:39;;;;;;;11.00;9.30;;;;;;;19.05;71.23;96755.66;1715087;83;21071;-80
2021/09/04 09:47:12;;;;;;;13.78;12.35;;;;;;;19.20;71.80;96749.96;1682423;84;21441;-81
2021/09/04 09:49:42;;;;;;;12.28;9.65;;;;;;;19.29;70.28;96751.22;1669753;84;21089;-80
2021/09/04 09:52:11;;;;;;;10.55;9.35;;;;;;;19.39;70.87;96746.20;1663087;84;21093;-81
2021/09/04 09:54:37;;;;;;;14.65;11.75;;;;;;;19.47;71.43;96751.11;1674825;84;21061;-81
2021/09/04 09:57:09;;;;;;;10.48;8.48;;;;;;;19.59;70.45;96758.26;1683404;84;21047;-81
2021/09/04 09:59:35;;;;;;;10.85;9.60;;;;;;;19.65;68.12;96754.18;1691069;84;21010;-80
2021/09/04 10:02:08;;;;;;;9.73;8.73;;;;;;;19.68;66.77;96752.39;1690469;84;21456;-80
2021/09/04 10:04:35;;;;;;;10.20;8.85;;;;;;;19.72;67.31;96756.20;1704901;82;21358;-80
2021/09/04 10:07:02;;;;;;;9.73;8.73;;;;;;;19.82;67.25;96752.97;1688682;84;21063;-81
2021/09/04 10:09:28;;;;;;;10.72;8.65;;;;;;;19.90;66.96;96752.63;1677463;84;21054;-81
2021/09/04 10:11:54;;;;;;;11.68;8.60;;;;;;;19.97;66.74;96748.02;1686612;83;21476;-80
2021/09/04 10:14:21;;;;;;;9.98;8.45;;;;;;;20.06;65.08;96755.07;1691147;84;21006;-81
2021/09/04 10:16:49;;;;;;;10.58;8.70;;;;;;;20.13;65.10;96755.73;1694227;84;22437;-81
2021/09/04 10:19:16;;;;;;;7.95;7.15;;;;;;;20.23;65.37;96754.63;1662877;84;21123;-81
2021/09/04 10:21:42;;;;;;;10.28;8.63;;;;;;;20.32;63.57;96761.13;1689573;84;21034;-81
2021/09/04 10:24:09;;;;;;;9.35;8.10;;;;;;;20.39;64.28;96759.69;1676164;84;20972;-80
2021/09/04 10:26:40;;;;;;;10.50;8.35;;;;;;;20.41;63.82;96753.69;1689557;83;21051;-80
2021/09/04 10:29:17;;;;;;;9.95;8.98;;;;;;;20.37;62.81;96750.69;1720319;82;21033;-80
2021/09/04 10:32:02;;;;;;;9.45;8.45;;;;;;;20.35;64.50;96751.45;1716748;83;21358;-80
2021/09/04 10:34:39;;;;;;;10.00;9.00;;;;;;;20.39;63.92;96753.09;1701493;82;21186;-80
2021/09/04 10:37:18;;;;;;;10.45;8.18;;;;;;;20.38;63.86;96747.53;1696650;82;21081;-81
2021/09/04 10:40:02;;;;;;;9.45;8.13;;;;;;;20.36;63.66;96750.93;1690826;83;21185;-81
2021/09/04 10:42:35;;;;;;;9.58;7.92;;;;;;;20.37;63.05;96742.77;1685926;82;21114;-80
2021/09/04 10:45:06;;;;;;;8.03;7.22;;;;;;;20.38;63.14;96747.02;1697334;82;20969;-81
2021/09/04 10:47:49;;;;;;;;;;;;;;;20.40;64.37;96746.78;1706531;82;21514;-80
2021/09/04 10:50:22;;;;;;;9.40;8.40;;;;;;;20.38;61.63;96740.94;1696008;82;20168;-80
2021/09/04 10:52:56;;;;;;;10.40;8.63;;;;;;;20.35;61.25;96743.53;1704739;82;21016;-81
2021/09/04 10:55:27;;;;;;;10.05;8.65;;;;;;;20.34;61.22;96748.53;1691181;83;21072;-80
2021/09/04 10:58:15;;;;;;;10.20;9.20;;;;;;;20.33;60.27;96746.09;1674801;83;21156;-81
2021/09/04 11:00:50;;;;;;;9.20;8.18;;;;;;;20.38;60.63;96736.98;1659671;84;21138;-80
2021/09/04 11:03:18;;;;;;;11.60;9.03;;;;;;;20.45;61.03;96738.17;1678098;84;20999;-81
2021/09/04 11:05:56;;;;;;;8.65;7.85;;;;;;;20.53;61.40;96740.45;1684138;84;21084;-81
2021/09/04 11:08:27;;;;;;;9.73;7.45;;;;;;;20.60;60.32;96739.78;1682461;84;21061;-80
2021/09/04 11:11:18;;;;;;;10.55;9.08;;;;;;;20.52;59.48;96737.53;1717966;82;21031;-80
2021/09/04 11:13:51;;;;;;;9.35;8.45;;;;;;;20.55;58.57;96737.06;1678873;84;21103;-81
2021/09/04 11:16:34;;;;;;;9.15;8.25;;;;;;;20.59;61.11;96732.91;1678168;84;21034;-80
2021/09/04 11:19:16;;;;;;;10.78;9.58;;;;;;;20.64;57.91;96731.66;1672456;84;21075;-81
2021/09/04 11:21:55;;;;;;;11.93;10.13;;;;;;;20.72;58.66;96726.54;1680201;83;21121;-81
2021/09/04 11:24:28;;;;;;;9.38;8.15;;;;;;;20.77;57.54;96726.62;1639243;84;21071;-80
2021/09/04 11:27:02;;;;;;;10.25;9.15;;;;;;;20.84;57.18;96726.77;1677616;84;21401;-80
2021/09/04 11:29:28;;;;;;;10.13;9.13;;;;;;;20.86;60.13;96733.92;1655357;84;21104;-81
2021/09/04 11:32:01;;;;;;;9.60;8.60;;;;;;;20.62;60.36;96730.59;1684583;84;21055;-80